Time;durP1;ratioP1;P1;durP2;ratioP2;P2;SDS_P1;SDS_P2;PMS_P1;PMS_P2;Temp;Humidity;BMP_temperature;BMP_pressure;BME280_temperature;BME280_humidity;BME280_pressure;Samples;Min_cycle;Max_cycle;Signal;HPM_P1;HPM_P2
2023/12/24 00:01:12;;;;;;;8.53;3.70;;;;;;;8.96;100.00;100788.53;4936164;29;20024;-85
2023/12/24 00:03:38;;;;;;;7.43;3.90;;;;;;;8.95;100.00;100798.03;4935834;29;20035;-85
2023/12/24 00:06:05;;;;;;;6.50;3.63;;;;;;;8.96;100.00;100798.91;4950920;28;20039;-85
2023/12/24 00:08:31;;;;;;;6.43;3.80;;;;;;;8.94;100.00;100782.53;4953776;29;20032;-84
2023/12/24 00:10:57;;;;;;;7.05;3.70;;;;;;;8.93;100.00;100797.22;4953556;29;20437;-84
2023/12/24 00:13:23;;;;;;;7.83;4.30;;;;;;;8.94;100.00;100798.06;4953332;29;20027;-84
2023/12/24 00:15:48;;;;;;;8.85;4.30;;;;;;;8.93;100.00;100802.38;4955041;29;20090;-85
2023/12/24 00:18:14;;;;;;;8.07;3.93;;;;;;;8.95;100.00;100804.94;4955051;28;20027;-84
2023/12/24 00:20:39;;;;;;;9.13;4.20;;;;;;;8.98;100.00;100811.81;4954957;29;20078;-86
2023/12/24 00:23:09;;;;;;;7.37;4.00;;;;;;;8.99;100.00;100814.41;4955429;29;20038;-85
2023/12/24 00:25:35;;;;;;;6.03;3.70;;;;;;;9.01;100.00;100806.63;4954510;28;20031;-86
2023/12/24 00:28:01;;;;;;;8.48;4.22;;;;;;;9.03;100.00;100813.50;4954818;29;20539;-85
2023/12/24 00:30:26;;;;;;;8.17;4.20;;;;;;;9.08;100.00;100797.91;4951343;28;20122;-86
2023/12/24 00:32:58;;;;;;;6.10;3.40;;;;;;;9.03;100.00;100792.78;4934698;29;20027;-85
2023/12/24 00:35:25;;;;;;;5.47;3.28;;;;;;;9.06;100.00;100808.28;4936097;29;20036;-86
2023/12/24 00:37:58;;;;;;;8.70;3.78;;;;;;;9.07;100.00;100794.47;4935777;29;20106;-85
2023/12/24 00:40:24;;;;;;;6.45;3.22;;;;;;;9.07;100.00;100789.31;4935284;29;20043;-85
2023/12/24 00:42:49;;;;;;;3.93;2.97;;;;;;;9.08;99.35;100772.03;4935618;29;20115;-85
2023/12/24 00:45:14;;;;;;;8.97;3.43;;;;;;;9.06;99.65;100734.97;4935533;29;20056;-85
2023/12/24 00:47:40;;;;;;;6.40;2.70;;;;;;;9.09;98.18;100746.13;4934706;29;20028;-85
2023/12/24 00:50:06;;;;;;;4.90;2.87;;;;;;;9.09;97.76;100742.69;4936006;29;20028;-86
2023/12/24 00:52:32;;;;;;;5.43;2.70;;;;;;;9.10;97.97;100731.44;4935697;29;20030;-84
2023/12/24 00:54:58;;;;;;;2.30;2.00;;;;;;;9.06;97.69;100719.44;4934940;29;20027;-85
2023/12/24 00:57:23;;;;;;;5.20;2.40;;;;;;;9.07;97.18;100706.47;4935638;29;20035;-85
2023/12/24 00:59:48;;;;;;;3.97;2.40;;;;;;;9.02;97.52;100694.44;4948790;29;20160;-84
2023/12/24 01:02:14;;;;;;;4.07;2.20;;;;;;;9.01;97.65;100692.72;4952968;28;20039;-84
2023/12/24 01:04:39;;;;;;;3.47;1.70;;;;;;;8.97;98.50;100668.59;4954347;29;20023;-84
2023/12/24 01:07:04;;;;;;;3.93;2.10;;;;;;;8.94;98.39;100660.88;4954991;29;20031;-84
2023/12/24 01:09:32;;;;;;;4.80;2.17;;;;;;;8.94;98.15;100643.63;4953627;29;20035;-84
2023/12/24 01:11:57;;;;;;;6.38;2.47;;;;;;;8.94;97.92;100642.75;4954459;28;20019;-84
2023/12/24 01:14:23;;;;;;;5.00;2.47;;;;;;;8.99;98.24;100660.81;4954247;28;20425;-84
2023/12/24 01:16:48;;;;;;;3.83;2.30;;;;;;;8.95;98.55;100662.59;4953519;28;20050;-85
2023/12/24 01:19:13;;;;;;;4.40;2.50;;;;;;;8.98;98.30;100654.78;4954938;29;20019;-84
2023/12/24 01:21:39;;;;;;;3.27;2.30;;;;;;;8.98;99.08;100644.44;4954220;28;20042;-84
2023/12/24 01:24:07;;;;;;;3.33;2.10;;;;;;;8.97;98.94;100650.50;4953929;29;20019;-84
2023/12/24 01:26:34;;;;;;;2.53;2.20;;;;;;;8.98;98.63;100646.16;4953299;28;20031;-83
2023/12/24 01:29:00;;;;;;;5.15;2.30;;;;;;;9.05;98.77;100665.94;4953668;29;20059;-85
2023/12/24 01:31:25;;;;;;;4.33;2.30;;;;;;;8.99;98.97;100658.22;4954012;28;20075;-85
2023/12/24 01:33:50;;;;;;;6.37;2.37;;;;;;;9.04;98.97;100672.81;4954379;29;20444;-85
2023/12/24 01:36:16;;;;;;;3.57;2.00;;;;;;;9.10;98.78;100662.41;4955213;28;20019;-84
2023/12/24 01:38:44;;;;;;;5.83;2.00;;;;;;;9.08;99.24;100648.63;4957978;28;20433;-85
2023/12/24 01:41:09;;;;;;;4.35;2.00;;;;;;;9.08;99.24;100666.75;4958334;29;20027;-85
2023/12/24 01:43:34;;;;;;;3.37;2.07;;;;;;;9.11;99.49;100665.84;4957114;28;20027;-85
2023/12/24 01:46:01;;;;;;;8.47;2.60;;;;;;;9.09;99.95;100667.59;4957975;28;20035;-86
2023/12/24 01:48:26;;;;;;;7.85;2.60;;;;;;;9.09;100.00;100667.59;4957992;29;20488;-85
2023/12/24 01:50:52;;;;;;;5.67;2.20;;;;;;;9.14;100.00;100657.19;4956970;28;20082;-85
2023/12/24 01:53:18;;;;;;;3.22;1.90;;;;;;;9.09;100.00;100668.47;4958009;28;20464;-85
2023/12/24 01:55:47;;;;;;;5.30;2.13;;;;;;;9.13;100.00;100658.94;4944390;29;20059;-84
2023/12/24 01:58:15;;;;;;;6.90;2.10;;;;;;;9.11;100.00;100661.53;4954085;29;20027;-84
2023/12/24 02:00:41;;;;;;;7.00;2.00;;;;;;;9.08;100.00;100664.16;4956687;28;20027;-84
2023/12/24 02:03:08;;;;;;;3.50;1.80;;;;;;;9.08;100.00;100660.69;4957467;28;20075;-85
2023/12/24 02:05:34;;;;;;;6.45;1.85;;;;;;;9.08;100.00;100665.88;4956938;28;20031;-84
2023/12/24 02:08:01;;;;;;;6.87;2.47;;;;;;;9.06;100.00;100663.31;4957483;29;20027;-85
2023/12/24 02:10:27;;;;;;;5.53;2.15;;;;;;;9.02;100.00;100666.81;4957590;29;20029;-84
2023/12/24 02:12:53;;;;;;;3.50;1.70;;;;;;;9.01;100.00;100661.66;4941227;29;20459;-84
2023/12/24 02:15:18;;;;;;;3.30;1.80;;;;;;;8.97;100.00;100658.25;4938355;29;20083;-86
2023/12/24 02:17:43;;;;;;;3.53;1.80;;;;;;;8.91;100.00;100658.31;4938203;29;20058;-85
2023/12/24 02:20:10;;;;;;;5.00;1.80;;;;;;;8.93;100.00;100657.44;4938750;29;20043;-86
2023/12/24 02:22:35;;;;;;;4.57;2.00;;;;;;;8.89;100.00;100653.16;4937361;29;20499;-85
2023/12/24 02:25:02;;;;;;;6.10;2.60;;;;;;;8.85;100.00;100646.28;4938082;29;20024;-86
2023/12/24 02:27:42;;;;;;;5.22;2.30;;;;;;;8.87;100.00;100641.13;4936995;29;20035;-85
2023/12/24 02:30:18;;;;;;;5.22;2.20;;;;;;;8.83;100.00;100647.19;4937829;29;20122;-85
2023/12/24 02:32:46;;;;;;;7.10;2.40;;;;;;;8.81;100.00;100640.31;4937129;29;20028;-86
2023/12/24 02:35:15;;;;;;;3.78;1.98;;;;;;;8.80;100.00;100648.94;4937741;29;20370;-85
2023/12/24 02:37:41;;;;;;;3.40;1.83;;;;;;;8.73;100.00;100617.97;4937971;29;20050;-85
2023/12/24 02:40:07;;;;;;;6.20;2.10;;;;;;;8.72;100.00;100626.63;4937199;29;20020;-85
2023/12/24 02:42:33;;;;;;;5.38;2.00;;;;;;;8.72;100.00;100627.47;4937935;29;20099;-85
2023/12/24 02:44:58;;;;;;;3.33;1.90;;;;;;;8.68;100.00;100614.59;4937915;29;20456;-86
2023/12/24 02:47:24;;;;;;;6.80;2.10;;;;;;;8.65;100.00;100611.16;4935855;29;20512;-86
2023/12/24 02:49:52;;;;;;;3.03;1.92;;;;;;;8.62;100.00;100607.75;4937778;29;20381;-86
2023/12/24 02:52:17;;;;;;;5.72;2.10;;;;;;;8.61;100.00;100598.28;4954431;29;20027;-86
2023/12/24 02:54:42;;;;;;;3.93;1.73;;;;;;;8.60;100.00;100599.16;4955573;28;20031;-86
2023/12/24 03:00:11;;;;;;;3.28;2.17;;;;;;;8.49;100.00;100584.59;4936939;29;20043;-85
2023/12/24 03:02:36;;;;;;;3.27;1.93;;;;;;;8.58;100.00;100600.88;4936782;29;20028;-85
2023/12/24 03:05:02;;;;;;;2.23;1.70;;;;;;;8.56;100.00;100603.50;4937356;29;20034;-86
2023/12/24 03:07:30;;;;;;;3.80;2.00;;;;;;;8.54;100.00;100605.25;4936898;29;20027;-86
2023/12/24 03:09:55;;;;;;;2.10;1.80;;;;;;;8.59;100.00;100590.53;4936870;29;20028;-85
2023/12/24 03:12:21;;;;;;;2.00;1.80;;;;;;;8.57;100.00;100601.75;4937331;29;20036;-85
2023/12/24 03:14:46;;;;;;;4.57;1.87;;;;;;;8.56;100.00;100587.09;4936203;29;20023;-85
2023/12/24 03:17:12;;;;;;;1.67;1.53;;;;;;;8.55;100.00;100577.66;4937045;29;20035;-85
2023/12/24 03:19:38;;;;;;;2.75;2.00;;;;;;;8.56;100.00;100576.75;4947871;28;20023;-86
2023/12/24 03:22:03;;;;;;;3.60;2.03;;;;;;;8.50;100.00;100554.41;4955211;29;20034;-85
2023/12/24 03:24:29;;;;;;;4.30;2.17;;;;;;;8.56;100.00;100551.78;4955831;29;20425;-85
2023/12/24 03:26:54;;;;;;;3.73;2.00;;;;;;;8.55;100.00;100550.06;4955527;28;20050;-85
2023/12/24 03:29:20;;;;;;;3.70;2.40;;;;;;;8.53;100.00;100545.78;4955344;28;20027;-85
2023/12/24 03:31:45;;;;;;;4.07;2.40;;;;;;;8.52;100.00;100541.47;4955478;28;20134;-85
2023/12/24 03:34:10;;;;;;;2.93;2.00;;;;;;;8.54;100.00;100550.94;4955909;28;20035;-84
2023/12/24 03:36:35;;;;;;;2.57;1.90;;;;;;;8.57;100.00;100550.03;4954757;29;20027;-85
2023/12/24 03:39:01;;;;;;;3.43;2.10;;;;;;;8.59;100.00;100536.22;4956130;29;20043;-86
2023/12/24 03:41:26;;;;;;;2.23;2.03;;;;;;;8.57;100.00;100539.69;5037394;23;20960;-82
2023/12/24 03:43:55;;;;;;;3.23;1.90;;;;;;;8.58;100.00;100537.09;4993623;28;20125;-85
2023/12/24 03:46:20;;;;;;;2.05;1.90;;;;;;;8.63;100.00;100531.84;4993107;28;20037;-85
2023/12/24 03:48:46;;;;;;;2.10;1.80;;;;;;;8.63;100.00;100534.44;4984398;28;20042;-85
2023/12/24 03:51:12;;;;;;;2.33;1.70;;;;;;;8.59;100.00;100522.41;4993657;28;20046;-86
2023/12/24 03:53:37;;;;;;;1.77;1.50;;;;;;;8.60;100.00;100514.66;4994413;28;20118;-85
2023/12/24 03:56:06;;;;;;;2.00;1.50;;;;;;;8.64;100.00;100515.47;4994463;28;20463;-85
2023/12/24 03:58:31;;;;;;;1.60;1.50;;;;;;;8.65;100.00;100530.13;4992943;28;20030;-85
2023/12/24 04:00:57;;;;;;;1.77;1.23;;;;;;;8.67;100.00;100519.75;4994396;28;20475;-85
2023/12/24 04:03:22;;;;;;;1.23;1.10;;;;;;;8.66;100.00;100526.66;4994189;28;20019;-85
2023/12/24 04:05:48;;;;;;;1.17;1.03;;;;;;;8.69;100.00;100518.00;4993138;28;20027;-85
2023/12/24 04:08:14;;;;;;;0.67;0.67;;;;;;;8.67;100.00;100525.75;4994298;28;20022;-85
2023/12/24 04:10:40;;;;;;;1.08;0.88;;;;;;;8.70;100.00;100523.13;4993089;28;20046;-85
2023/12/24 04:13:08;;;;;;;0.60;0.60;;;;;;;8.70;100.00;100519.72;4990379;28;20069;-85
2023/12/24 04:15:34;;;;;;;0.60;0.60;;;;;;;8.71;100.00;100521.41;4982918;28;20034;-86
2023/12/24 04:18:00;;;;;;;1.47;0.60;;;;;;;8.66;100.00;100505.97;4973620;28;20134;-85
2023/12/24 04:20:25;;;;;;;0.50;0.50;;;;;;;8.72;100.00;100511.03;4974903;28;20019;-85
2023/12/24 04:22:51;;;;;;;0.40;0.40;;;;;;;8.71;100.00;100498.97;4973939;28;20499;-85
2023/12/24 04:25:16;;;;;;;0.73;0.73;;;;;;;8.70;100.00;100502.44;4973882;28;20019;-85
2023/12/24 04:27:41;;;;;;;1.17;0.90;;;;;;;8.72;100.00;100513.63;4974164;28;20108;-85
2023/12/24 04:30:07;;;;;;;1.00;0.87;;;;;;;8.73;100.00;100505.00;4989257;28;20027;-86
2023/12/24 04:32:32;;;;;;;1.00;1.00;;;;;;;8.71;100.00;100506.75;4992748;28;20050;-86
2023/12/24 04:34:58;;;;;;;0.93;0.93;;;;;;;8.74;100.00;100506.72;4994256;28;20030;-85
2023/12/24 04:37:23;;;;;;;0.80;0.80;;;;;;;8.74;100.00;100504.13;4993834;28;20034;-86
2023/12/24 04:39:49;;;;;;;0.93;0.90;;;;;;;8.76;100.00;100504.97;4993344;28;20128;-86
2023/12/24 04:42:14;;;;;;;1.37;1.27;;;;;;;8.77;100.00;100496.31;4993743;28;20046;-85
2023/12/24 04:44:39;;;;;;;0.97;0.90;;;;;;;8.76;100.00;100501.50;5012664;28;20038;-85
2023/12/24 04:47:06;;;;;;;1.10;1.00;;;;;;;8.76;100.00;100501.50;5012264;28;20022;-85
2023/12/24 04:49:32;;;;;;;0.95;0.95;;;;;;;8.76;100.00;100504.97;5013349;28;20018;-85
2023/12/24 04:51:59;;;;;;;0.90;0.90;;;;;;;8.78;100.00;100498.00;5013062;28;20038;-86
2023/12/24 04:54:30;;;;;;;0.85;0.82;;;;;;;8.74;100.00;100496.34;5012454;28;20026;-85
2023/12/24 04:56:57;;;;;;;0.98;0.98;;;;;;;8.77;100.00;100501.50;5012758;28;20033;-86
2023/12/24 04:59:29;;;;;;;0.88;0.88;;;;;;;8.77;100.00;100493.75;5012936;28;20040;-86
2023/12/24 05:01:54;;;;;;;1.10;1.10;;;;;;;8.78;100.00;100485.06;5014571;23;20093;-86
2023/12/24 05:04:19;;;;;;;1.07;1.07;;;;;;;8.78;100.00;100490.25;4993516;28;20034;-85
2023/12/24 05:06:45;;;;;;;1.30;1.20;;;;;;;8.80;100.00;100491.09;4992782;28;20050;-86
2023/12/24 05:09:14;;;;;;;1.00;1.00;;;;;;;8.79;100.00;100486.78;4992623;28;20027;-86
2023/12/24 05:11:42;;;;;;;1.25;1.25;;;;;;;8.80;100.00;100480.75;4994437;28;20038;-86
2023/12/24 05:14:07;;;;;;;1.30;1.27;;;;;;;8.73;100.00;100471.34;4996172;28;20105;-86
2023/12/24 05:16:51;;;;;;;2.57;1.50;;;;;;;8.81;100.00;100492.81;4997552;28;20117;-86
2023/12/24 05:19:16;;;;;;;1.15;1.05;;;;;;;8.83;100.00;100491.94;4997629;28;20030;-85
2023/12/24 05:21:41;;;;;;;1.43;1.33;;;;;;;8.73;100.00;100476.53;4996081;28;20027;-85
2023/12/24 05:24:07;;;;;;;0.97;0.97;;;;;;;8.83;100.00;100474.69;4997205;28;20053;-85
2023/12/24 05:26:32;;;;;;;1.30;1.20;;;;;;;8.74;100.00;100467.03;4996488;28;20113;-85
2023/12/24 05:28:57;;;;;;;1.33;1.23;;;;;;;8.74;100.00;100465.31;4996294;28;20030;-86
2023/12/24 05:31:23;;;;;;;1.40;1.30;;;;;;;8.84;100.00;100478.97;4997353;28;20046;-85
2023/12/24 05:34:06;;;;;;;1.17;1.17;;;;;;;8.80;100.00;100475.56;4996728;28;20041;-85
2023/12/24 05:36:51;;;;;;;1.80;1.45;;;;;;;8.74;100.00;100462.72;4996305;28;20054;-85
2023/12/24 05:39:16;;;;;;;1.50;1.40;;;;;;;8.87;100.00;100475.50;4997103;28;20371;-85
2023/12/24 05:41:45;;;;;;;1.43;1.33;;;;;;;8.87;100.00;100480.66;4996728;28;20041;-85
2023/12/24 05:44:10;;;;;;;1.42;1.33;;;;;;;8.78;100.00;100456.59;4995957;28;20061;-85
2023/12/24 05:46:35;;;;;;;1.50;1.40;;;;;;;8.89;100.00;100472.00;4996624;28;20066;-84
2023/12/24 05:49:22;;;;;;;1.60;1.50;;;;;;;8.91;100.00;100483.19;4996608;28;20037;-85
2023/12/24 05:51:48;;;;;;;1.33;1.23;;;;;;;8.83;100.00;100463.47;4996640;28;20045;-85
2023/12/24 05:54:13;;;;;;;2.10;1.80;;;;;;;8.91;100.00;100472.84;4995872;28;20030;-85
2023/12/24 05:56:39;;;;;;;1.60;1.50;;;;;;;8.91;100.00;100477.13;5031615;23;20046;-85
2023/12/24 05:59:05;;;;;;;1.33;1.23;;;;;;;8.92;100.00;100469.38;5016203;28;20026;-86
2023/12/24 06:01:30;;;;;;;1.42;1.33;;;;;;;8.88;100.00;100452.16;5015438;28;20470;-86
2023/12/24 06:03:56;;;;;;;1.43;1.33;;;;;;;8.94;100.00;100456.41;5014989;28;20083;-86
2023/12/24 06:06:21;;;;;;;1.67;1.30;;;;;;;8.93;100.00;100472.81;5016246;28;20026;-85
2023/12/24 06:08:49;;;;;;;1.80;1.70;;;;;;;8.93;100.00;100467.63;5015577;28;20463;-86
2023/12/24 06:11:18;;;;;;;1.58;1.48;;;;;;;8.93;100.00;100459.88;5015325;28;20029;-86
2023/12/24 06:13:43;;;;;;;1.75;1.65;;;;;;;8.97;100.00;100474.47;5015734;28;20026;-86
2023/12/24 06:16:11;;;;;;;1.87;1.63;;;;;;;8.95;100.00;100463.28;5016194;28;20032;-86
2023/12/24 06:18:36;;;;;;;1.70;1.60;;;;;;;8.96;100.00;100460.66;5015140;28;20037;-87
2023/12/24 06:21:06;;;;;;;1.87;1.77;;;;;;;9.00;100.00;100452.88;5015348;28;20030;-86
2023/12/24 06:23:35;;;;;;;1.67;1.58;;;;;;;9.01;100.00;100455.41;4995521;28;20022;-85
2023/12/24 06:26:00;;;;;;;1.60;1.50;;;;;;;9.02;100.00;100462.31;4995342;28;20018;-86
2023/12/24 06:28:25;;;;;;;2.37;1.80;;;;;;;9.02;100.00;100454.53;4996277;28;20048;-85
2023/12/24 06:30:51;;;;;;;1.87;1.40;;;;;;;9.01;100.00;100455.41;4995976;28;20045;-85
2023/12/24 06:33:17;;;;;;;1.35;1.25;;;;;;;9.02;100.00;100451.97;4995304;28;20038;-85
2023/12/24 06:35:42;;;;;;;2.10;1.80;;;;;;;9.02;100.00;100451.97;4995644;28;20109;-85
2023/12/24 06:38:08;;;;;;;1.93;1.80;;;;;;;9.09;100.00;100440.66;4996252;28;20026;-85
2023/12/24 06:40:36;;;;;;;2.07;1.80;;;;;;;9.03;100.00;100435.53;5106019;23;20477;-83
2023/12/24 06:43:01;;;;;;;1.88;1.73;;;;;;;9.05;100.00;100449.31;5015503;28;20014;-83
2023/12/24 06:45:29;;;;;;;2.10;1.60;;;;;;;9.08;100.00;100454.47;5014687;28;20113;-82
2023/12/24 06:47:54;;;;;;;1.70;1.60;;;;;;;9.06;100.00;100447.63;5015275;28;20033;-83
2023/12/24 06:50:22;;;;;;;1.60;1.50;;;;;;;9.07;100.00;100445.00;5014986;28;20390;-83
2023/12/24 06:52:50;;;;;;;1.63;1.52;;;;;;;9.05;100.00;100435.53;5014226;28;20022;-83
2023/12/24 06:55:15;;;;;;;1.70;1.60;;;;;;;9.07;100.00;100439.81;5015197;28;20519;-84
2023/12/24 06:57:40;;;;;;;1.90;1.80;;;;;;;9.16;100.00;100440.53;5014792;28;20026;-85
2023/12/24 07:00:06;;;;;;;1.70;1.60;;;;;;;9.12;100.00;100443.16;5014114;28;20417;-85
2023/12/24 07:05:15;;;;;;;1.90;1.70;;;;;;;9.15;100.00;100424.16;5015317;28;20120;-85
2023/12/24 07:07:40;;;;;;;1.77;1.67;;;;;;;9.11;100.00;100428.53;5014208;28;20112;-86
2023/12/24 07:10:06;;;;;;;2.00;1.60;;;;;;;9.20;100.00;100444.81;5015284;28;20029;-85
2023/12/24 07:12:31;;;;;;;1.90;1.67;;;;;;;9.18;100.00;100441.38;5014577;28;20033;-85
2023/12/24 07:14:56;;;;;;;1.90;1.80;;;;;;;9.17;100.00;100431.91;5012907;28;20293;-84
2023/12/24 07:17:22;;;;;;;1.70;1.60;;;;;;;9.20;100.00;100447.38;5014870;28;20080;-84
2023/12/24 07:19:47;;;;;;;1.80;1.70;;;;;;;9.20;100.00;100447.38;4995754;28;20034;-82
2023/12/24 07:22:16;;;;;;;1.70;1.60;;;;;;;9.21;100.00;100444.75;5013884;28;20157;-82
2023/12/24 07:24:41;;;;;;;2.45;1.88;;;;;;;9.17;100.00;100435.34;5014521;28;20025;-86
2023/12/24 07:27:09;;;;;;;1.97;1.80;;;;;;;9.16;100.00;100444.00;5014436;28;20073;-85
2023/12/24 07:29:34;;;;;;;2.20;2.00;;;;;;;9.20;100.00;100442.22;5013167;28;20030;-85
2023/12/24 07:31:59;;;;;;;2.20;2.00;;;;;;;9.21;100.00;100439.59;5014791;28;20022;-85
2023/12/24 07:34:24;;;;;;;2.50;1.90;;;;;;;9.26;100.00;100442.09;5013964;28;20109;-85
2023/12/24 07:36:50;;;;;;;2.67;1.90;;;;;;;9.24;100.00;100443.84;5013797;28;20417;-85
2023/12/24 07:39:15;;;;;;;2.17;1.97;;;;;;;9.22;100.00;100436.13;5014248;28;20058;-84
2023/12/24 07:41:42;;;;;;;2.90;2.30;;;;;;;9.27;100.00;100441.22;5012993;28;20104;-82
2023/12/24 07:44:09;;;;;;;3.45;2.30;;;;;;;9.24;100.00;100438.66;5011265;28;20076;-85
2023/12/24 07:46:35;;;;;;;2.78;2.22;;;;;;;9.30;100.00;100446.34;5008188;28;20486;-84
2023/12/24 07:49:00;;;;;;;2.20;2.00;;;;;;;9.30;100.00;100455.84;5007169;28;20096;-84
2023/12/24 07:51:25;;;;;;;2.20;2.00;;;;;;;9.30;100.00;100448.94;5005943;28;20038;-85
2023/12/24 07:53:50;;;;;;;2.30;2.10;;;;;;;9.31;100.00;100440.31;5008947;28;20080;-84
2023/12/24 07:56:16;;;;;;;3.17;2.20;;;;;;;9.30;100.00;100442.91;5000855;28;20029;-85
2023/12/24 07:58:41;;;;;;;2.87;2.50;;;;;;;9.32;100.00;100444.59;5008466;28;20026;-85
2023/12/24 08:01:06;;;;;;;2.50;2.10;;;;;;;9.30;100.00;100429.94;5010720;28;20054;-85
2023/12/24 08:03:32;;;;;;;2.60;2.20;;;;;;;9.36;100.00;100435.88;5012936;28;20027;-86
2023/12/24 08:05:57;;;;;;;3.20;2.50;;;;;;;9.31;100.00;100431.66;5013591;28;20033;-85
2023/12/24 08:08:22;;;;;;;3.10;2.30;;;;;;;9.34;100.00;100435.06;5013751;28;20030;-85
2023/12/24 08:10:47;;;;;;;3.13;2.33;;;;;;;9.37;100.00;100434.16;5012873;28;20026;-86
2023/12/24 08:13:14;;;;;;;2.73;2.37;;;;;;;9.31;100.00;100429.06;5013541;28;20026;-85
2023/12/24 08:15:39;;;;;;;2.90;2.35;;;;;;;9.36;100.00;100451.41;5013918;28;20037;-85
2023/12/24 08:18:08;;;;;;;3.20;2.43;;;;;;;9.38;100.00;100443.66;5013178;28;20026;-85
2023/12/24 08:20:33;;;;;;;2.20;2.00;;;;;;;9.37;100.00;100441.94;5013463;28;20366;-86
2023/12/24 08:22:58;;;;;;;2.00;1.90;;;;;;;9.31;100.00;100427.34;5012887;28;20033;-86
2023/12/24 08:25:24;;;;;;;2.00;1.80;;;;;;;9.34;100.00;100435.06;5012578;28;20148;-87
2023/12/24 08:27:49;;;;;;;2.10;1.90;;;;;;;9.35;100.00;100421.22;5013254;28;20030;-86
2023/12/24 08:30:14;;;;;;;2.23;2.03;;;;;;;9.38;100.00;100433.28;5005244;28;20041;-85
2023/12/24 08:32:43;;;;;;;2.13;1.83;;;;;;;9.37;100.00;100416.88;5012007;28;20037;-85
2023/12/24 08:35:11;;;;;;;1.80;1.70;;;;;;;9.31;100.00;100411.81;5008998;28;20065;-85
2023/12/24 08:37:48;;;;;;;1.80;1.70;;;;;;;9.37;100.00;100411.69;5002607;28;20125;-83
2023/12/24 08:40:14;;;;;;;1.90;1.80;;;;;;;9.35;100.00;100412.63;4991363;28;20050;-86
2023/12/24 08:42:40;;;;;;;1.93;1.83;;;;;;;9.32;100.00;100417.84;4993098;28;20395;-86
2023/12/24 08:45:12;;;;;;;1.98;1.80;;;;;;;9.36;100.00;100402.22;4992929;28;20078;-86
2023/12/24 08:47:38;;;;;;;2.25;2.05;;;;;;;9.41;100.00;100407.31;4993249;28;20026;-86
2023/12/24 08:50:03;;;;;;;2.30;2.10;;;;;;;9.41;100.00;100415.94;4993742;28;20109;-86
2023/12/24 08:52:31;;;;;;;1.80;1.70;;;;;;;9.40;100.00;100416.00;4992668;28;20110;-86
2023/12/24 08:54:59;;;;;;;2.03;1.85;;;;;;;9.50;100.00;100433.09;4993561;28;20098;-86
2023/12/24 08:57:24;;;;;;;2.00;1.80;;;;;;;9.52;100.00;100417.50;4993635;28;20034;-86
2023/12/24 08:59:49;;;;;;;2.07;1.90;;;;;;;9.52;100.00;100425.28;4992347;28;20103;-86
2023/12/24 09:02:15;;;;;;;2.30;2.10;;;;;;;9.53;100.00;100424.38;4993461;28;20106;-87
2023/12/24 09:04:40;;;;;;;3.03;1.70;;;;;;;9.52;100.00;100433.03;4993074;28;20475;-86
2023/12/24 09:07:05;;;;;;;1.93;1.83;;;;;;;9.57;100.00;100444.16;4992372;28;20030;-87
2023/12/24 09:09:31;;;;;;;2.20;2.00;;;;;;;9.57;100.00;100446.75;4993220;28;20038;-86
2023/12/24 09:11:56;;;;;;;2.10;1.90;;;;;;;9.59;100.00;100460.53;4993135;28;20049;-86
2023/12/24 09:14:21;;;;;;;2.50;2.20;;;;;;;9.61;100.00;100435.47;4992732;28;20053;-87
2023/12/24 09:16:46;;;;;;;2.90;2.30;;;;;;;9.65;100.00;100459.56;4993160;28;20029;-86
2023/12/24 09:19:12;;;;;;;1.93;1.83;;;;;;;9.65;100.00;100463.03;4994957;28;20031;-86
2023/12/24 09:21:37;;;;;;;2.30;2.10;;;;;;;9.66;100.00;100450.94;5011371;28;20475;-87
2023/12/24 09:24:06;;;;;;;2.90;2.40;;;;;;;9.64;100.00;100437.13;5012723;28;20064;-86
2023/12/24 09:26:31;;;;;;;2.45;2.05;;;;;;;9.70;100.00;100437.88;5012504;28;20026;-86
2023/12/24 09:28:56;;;;;;;2.77;2.40;;;;;;;9.62;100.00;100418.19;5012275;28;20079;-86
2023/12/24 09:31:31;;;;;;;3.03;2.40;;;;;;;9.74;100.00;100433.50;5012692;28;20034;-86
2023/12/24 09:33:56;;;;;;;3.40;2.50;;;;;;;9.69;100.00;100409.41;5012670;28;20057;-86
2023/12/24 09:36:21;;;;;;;3.50;2.60;;;;;;;9.71;100.00;100412.84;5006932;28;20053;-85
2023/12/24 09:38:47;;;;;;;2.57;2.30;;;;;;;9.67;100.00;100399.09;5002071;28;20022;-87
2023/12/24 09:41:19;;;;;;;3.33;2.63;;;;;;;9.76;100.00;100413.59;5009785;28;20562;-84
2023/12/24 09:43:44;;;;;;;2.67;2.20;;;;;;;9.81;100.00;100413.50;5022940;28;20057;-85
2023/12/24 09:46:10;;;;;;;3.07;2.37;;;;;;;9.80;100.00;100416.97;5011998;28;20034;-85
2023/12/24 09:48:35;;;;;;;2.63;2.30;;;;;;;9.78;100.00;100421.34;4997546;28;20045;-84
2023/12/24 09:51:01;;;;;;;3.20;2.40;;;;;;;9.81;100.00;100435.09;5015511;28;20474;-85
2023/12/24 09:53:27;;;;;;;2.35;2.15;;;;;;;9.82;100.00;100430.75;5006560;28;20034;-84
2023/12/24 09:55:52;;;;;;;2.80;2.40;;;;;;;9.79;100.00;100425.66;5006084;28;20037;-85
2023/12/24 09:58:17;;;;;;;2.60;2.10;;;;;;;9.84;100.00;100426.41;5014178;28;20092;-84
2023/12/24 10:00:43;;;;;;;3.17;2.20;;;;;;;9.83;100.00;100422.09;5012603;28;20041;-85
2023/12/24 10:03:08;;;;;;;3.10;2.30;;;;;;;9.83;100.00;100417.78;5001233;28;20037;-86
2023/12/24 10:05:33;;;;;;;5.00;2.90;;;;;;;9.83;100.00;100422.97;5010436;28;20105;-85
2023/12/24 10:07:59;;;;;;;4.23;2.83;;;;;;;9.86;100.00;100438.44;4996513;28;20499;-86
2023/12/24 10:10:31;;;;;;;4.37;3.13;;;;;;;9.88;100.00;100433.25;5003730;28;20032;-87
2023/12/24 10:13:05;;;;;;;5.60;3.50;;;;;;;9.88;100.00;100431.50;5014310;28;20026;-85
2023/12/24 10:15:32;;;;;;;5.20;3.53;;;;;;;9.86;100.00;100416.88;4997391;28;20034;-85
2023/12/24 10:18:14;;;;;;;;;;;;;;;9.92;100.00;100424.53;5013168;28;20033;-83
2023/12/24 10:20:39;;;;;;;11.25;5.07;;;;;;;9.83;100.00;100422.97;5013106;28;19971;-84
2023/12/24 10:23:16;;;;;;;12.10;6.10;;;;;;;9.96;100.00;100428.78;5014846;28;20041;-84
2023/12/24 10:25:41;;;;;;;13.18;6.38;;;;;;;9.98;100.00;100437.38;5014679;28;20101;-84
2023/12/24 10:28:07;;;;;;;11.50;6.40;;;;;;;10.01;100.00;100433.88;5015814;28;20426;-85
2023/12/24 10:30:33;;;;;;;12.57;6.70;;;;;;;10.01;100.00;100426.09;5013371;28;20053;-85
2023/12/24 10:33:09;;;;;;;15.85;7.30;;;;;;;10.02;100.00;100420.84;5015331;28;20018;-84
2023/12/24 10:35:35;;;;;;;15.07;7.63;;;;;;;10.07;100.00;100414.75;5014763;28;20026;-84
2023/12/24 10:38:12;;;;;;;17.35;8.48;;;;;;;10.10;100.00;100404.31;5014425;28;20026;-85
2023/12/24 10:40:38;;;;;;;16.52;7.72;;;;;;;10.11;100.00;100406.03;5014453;28;20148;-85
2023/12/24 10:43:03;;;;;;;15.90;7.90;;;;;;;10.12;100.00;100410.34;5015138;28;20510;-85
2023/12/24 10:45:29;;;;;;;18.37;8.57;;;;;;;10.15;100.00;100407.66;5014308;28;20018;-85
2023/12/24 10:47:54;;;;;;;16.70;8.40;;;;;;;10.12;100.00;100398.22;5014222;28;20344;-85
2023/12/24 10:50:20;;;;;;;18.33;9.13;;;;;;;10.16;100.00;100391.22;5014178;28;20433;-84
2023/12/24 10:52:46;;;;;;;17.95;8.48;;;;;;;10.20;100.00;100383.34;5014411;28;20052;-85
2023/12/24 10:55:11;;;;;;;15.97;7.70;;;;;;;10.20;100.00;100378.16;5015081;28;20030;-85
2023/12/24 10:58:03;;;;;;;15.30;7.07;;;;;;;10.24;100.00;100381.56;5014733;28;20060;-87
2023/12/24 11:00:28;;;;;;;15.82;7.20;;;;;;;10.28;100.00;100371.97;4977612;28;20049;-87
2023/12/24 11:02:54;;;;;;;14.37;6.70;;;;;;;10.32;100.00;100373.59;5008860;28;20410;-86
2023/12/24 11:05:46;;;;;;;12.23;6.20;;;;;;;10.35;100.00;100370.94;5014852;28;20064;-86
2023/12/24 11:08:21;;;;;;;10.85;5.30;;;;;;;10.40;100.00;100373.44;5009861;28;20471;-83
2023/12/24 11:10:56;;;;;;;8.85;4.60;;;;;;;10.42;100.00;100369.09;4994201;28;20034;-85
2023/12/24 11:13:34;;;;;;;7.47;4.10;;;;;;;10.45;100.00;100367.28;4994829;28;20030;-83
2023/12/24 11:16:00;;;;;;;5.55;3.35;;;;;;;10.46;100.00;100363.78;4994268;28;20160;-83
2023/12/24 11:18:43;;;;;;;4.32;2.92;;;;;;;10.46;100.00;100361.19;5005197;28;20034;-83
2023/12/24 11:21:12;;;;;;;3.55;2.58;;;;;;;10.46;100.00;100365.56;5011526;28;20179;-82
2023/12/24 11:23:42;;;;;;;4.18;2.50;;;;;;;10.46;100.00;100368.97;5011581;28;20120;-84
2023/12/24 11:26:32;;;;;;;3.63;2.22;;;;;;;10.50;100.00;100372.34;5014437;28;20060;-85
2023/12/24 11:29:42;;;;;;;2.85;1.90;;;;;;;10.43;100.00;100356.06;5013688;28;20022;-84